»·PEaware :: N221XG KTVL-KSBP

N221XG :: KTVL-KSBP

FLIGHT INFORMATION

Flight Status: Arrived
Operator: Privately registered:
United States
More flights under this callsign
Pilot: Ryan L. (9775)
Aircraft: BEECH AIRCRAFT SUPER KING AIR 350
(B350)
More flights by this aircraft type
Origin: KTVL Lake Tahoe
United States
Destination: KSBP San Luis Co Regl
United States
More flights between these airports :: More routes between these airports
Route: +SAC J126 SNS ROBIE PRB
File this flight plan on PilotEdge
Remarks:
Altitude:
(Current/Filed)
29,000ft
Speed:
(Current/Filed)
300kts
Departed: 23-May-19 05:28 PM
Arrived: 23-May-19 06:40 PM
Distance/Time
Traveled:
221nm/1:11
Distance/Time
To Go:
Arrived

Flight Plot

Page will automatically refresh every two minutes.

Flight plan parsing failed; only flown route is shown


Map Options




Map Legend


Flown Route
Filed Route
Departure Airport
Arrival Airport
Navaid (VOR, NDB)
Fix

Horizontal Profiles

Position Reports

Time Latitude Longitude Heading Altitude Ground
Speed
23-May-19 17:14 38.892292 -119.998167 26 6269ft 0kts
23-May-19 17:15 38.892292 -119.998167 26 6269ft 0kts
23-May-19 17:16 38.892292 -119.998167 26 6269ft 0kts
23-May-19 17:17 38.892292 -119.998167 26 6269ft 0kts
23-May-19 17:18 38.892293 -119.998167 27 6269ft 0kts
23-May-19 17:19 38.892293 -119.998167 26 6269ft 0kts
23-May-19 17:20 38.892293 -119.998167 26 6269ft 0kts
23-May-19 17:21 38.892433 -119.997738 82 6269ft 6kts
23-May-19 17:22 38.890302 -119.997407 194 6269ft 11kts
23-May-19 17:23 38.886649 -119.998508 196 6269ft 14kts
23-May-19 17:24 38.882945 -119.999575 172 6269ft 10kts
23-May-19 17:25 38.882789 -119.999485 139 6269ft 0kts
23-May-19 17:26 38.882722 -119.998607 14 6269ft 0kts
23-May-19 17:27 38.902741 -119.993693 4 6696ft 133kts
23-May-19 17:28 38.941669 -119.997710 356 8273ft 168kts
23-May-19 17:29 38.987899 -119.980259 19 10274ft 179kts
23-May-19 17:30 39.037390 -119.972231 356 12043ft 188kts
23-May-19 17:31 39.087477 -119.967932 8 13851ft 183kts
23-May-19 17:32 39.138226 -119.962453 336 15478ft 196kts
23-May-19 17:33 39.141279 -120.029616 222 16663ft 247kts
23-May-19 17:34 39.078094 -120.027449 149 18415ft 246kts
23-May-19 17:35 39.010906 -120.011452 214 19128ft 289kts
23-May-19 17:36 38.940999 -120.064225 211 20346ft 293kts
23-May-19 17:37 38.867768 -120.114874 210 21407ft 303kts
23-May-19 17:38 38.792514 -120.166212 211 22414ft 310kts
23-May-19 17:39 38.713940 -120.219830 211 22746ft 335kts
23-May-19 17:40 38.628813 -120.277793 211 22740ft 353kts
23-May-19 17:41 38.586925 -120.371336 258 24350ft 301kts
23-May-19 17:42 38.557969 -120.473114 258 25326ft 307kts
23-May-19 17:43 38.529497 -120.576500 269 26218ft 304kts
23-May-19 17:44 38.522166 -120.677473 273 27027ft 302kts
23-May-19 17:45 38.514123 -120.785392 272 27744ft 307kts
23-May-19 17:46 38.504601 -120.894664 271 28407ft 311kts
23-May-19 17:47 38.494698 -121.005117 271 29002ft 314kts
23-May-19 17:48 38.484298 -121.119794 271 28916ft 332kts
23-May-19 17:49 38.473381 -121.238525 270 28856ft 340kts
23-May-19 17:50 38.463154 -121.347286 271 29099ft 296kts
23-May-19 17:51 38.453296 -121.453504 271 28903ft 309kts
23-May-19 17:52 38.431803 -121.563817 248 28902ft 340kts
23-May-19 17:53 38.353017 -121.629087 175 28903ft 375kts
23-May-19 17:54 38.260572 -121.570264 154 28887ft 378kts
23-May-19 17:55 38.155695 -121.558543 181 28902ft 381kts
23-May-19 17:56 38.051073 -121.573343 180 28910ft 381kts
23-May-19 17:57 37.944527 -121.574044 183 28904ft 383kts
23-May-19 17:58 37.838053 -121.576637 182 28897ft 382kts
23-May-19 17:59 37.731514 -121.579038 182 28904ft 381kts
23-May-19 18:00 37.625202 -121.581425 182 28905ft 381kts
23-May-19 18:01 37.518668 -121.583817 182 28906ft 381kts
23-May-19 18:02 37.412403 -121.586188 182 28907ft 382kts
23-May-19 18:03 37.306052 -121.588563 182 28909ft 382kts
23-May-19 18:04 37.200138 -121.590919 182 28955ft 381kts
23-May-19 18:05 37.094404 -121.593268 182 29012ft 379kts
23-May-19 18:06 36.988830 -121.595601 182 29013ft 379kts
23-May-19 18:07 36.883248 -121.597941 182 29005ft 378kts
23-May-19 18:08 36.777807 -121.600230 182 29000ft 376kts
23-May-19 18:09 36.677594 -121.576581 150 28979ft 373kts
23-May-19 18:10 36.583674 -121.521733 153 28427ft 369kts
23-May-19 18:11 36.500268 -121.457955 142 26808ft 337kts
23-May-19 18:12 36.424072 -121.391886 141 25307ft 332kts
23-May-19 18:13 36.348874 -121.326090 141 23822ft 328kts
23-May-19 18:14 36.274944 -121.261516 141 22366ft 318kts
23-May-19 18:15 36.204400 -121.200023 142 20850ft 304kts
23-May-19 18:16 36.136706 -121.141153 142 19357ft 292kts
23-May-19 18:17 36.071066 -121.084184 142 17874ft 282kts
23-May-19 18:18 36.011314 -121.024669 131 16411ft 270kts
23-May-19 18:19 35.958612 -120.960669 135 14803ft 262kts
23-May-19 18:20 35.906968 -120.900145 136 13247ft 251kts
23-May-19 18:21 35.856946 -120.842327 136 11747ft 243kts
23-May-19 18:22 35.808667 -120.785872 136 10244ft 235kts
23-May-19 18:23 35.761373 -120.730731 136 8763ft 240kts
23-May-19 18:24 35.711756 -120.672948 136 7288ft 249kts
23-May-19 18:25 35.649137 -120.665705 199 5807ft 248kts
23-May-19 18:26 35.581698 -120.668382 214 4476ft 237kts
23-May-19 18:27 35.534250 -120.716110 214 4494ft 212kts
23-May-19 18:28 35.484857 -120.753214 211 4498ft 206kts
23-May-19 18:29 35.436602 -120.786834 210 4492ft 189kts
23-May-19 18:30 35.399400 -120.828329 219 4495ft 175kts
23-May-19 18:31 35.353861 -120.834717 179 4515ft 147kts
23-May-19 18:32 35.329250 -120.800911 127 3718ft 147kts
23-May-19 18:33 35.306487 -120.761190 128 2467ft 129kts
23-May-19 18:34 35.285477 -120.724598 127 1762ft 131kts
23-May-19 18:35 35.265677 -120.687999 107 1103ft 127kts
23-May-19 18:36 35.258088 -120.646230 113 1163ft 126kts
23-May-19 18:37 35.239382 -120.613330 135 833ft 103kts
23-May-19 18:38 35.227785 -120.624462 306 421ft 111kts
23-May-19 18:39 35.239865 -120.645449 303 217ft 26kts
23-May-19 18:40 35.241182 -120.645850 125 217ft 8kts
23-May-19 18:41 35.239512 -120.642933 125 217ft 12kts
23-May-19 18:42 35.238975 -120.641581 67 217ft 0kts
23-May-19 18:43 35.238974 -120.641581 67 217ft 0kts
23-May-19 18:44 35.238974 -120.641581 67 217ft 0kts
23-May-19 18:45 35.238974 -120.641581 67 217ft 0kts

Navigation Log

Ident Type
Flight plan parsing failed, navigation log unavailable